Airfield :
LOGIN :

Register | Disclaimer

   EN    FR    IT 

 










Legend :    VFR   Marginal VFR   IFR   Intensive IFR   Very Intensive IFR
Visi :
Ceiling :
>= 8 km
>= 3000ft
5 to 8 km
1000 to 3000 ft
1500m to 5 km
500 to 1000 ft
800 to 1500m
200 to 500 ft
< 800m
< 200 ft
Symbols :   Thunderstorms  Fog  Heavy snow  Heavy precipitations  Wind > 20 kt
SIGMETs :     Misc.  Thunderstorms  Icing  Turbulence  Mountain Waves  Volcanic Ashes






- Airport Elevation : 184 ft
- IATA code : BRU


EBBR - Bruxelles

CURRENT METAR :
  • 070350Z 24004KT 9999 SCT034 04/03 Q1018 NOSIG

EXPIRED METARs :
  • 070320Z 25005KT 9999 R25R///// -SHRA SCT032 04/03 Q1018 NOSIG
  • 070250Z 24005KT 9999 SCT032 03/03 Q1019 NOSIG
  • 070220Z 24005KT 9999 SCT032 04/03 Q1019 NOSIG
  • 070150Z 25005KT 9999 FEW025 03/03 Q1019 NOSIG
  • 070120Z 25005KT CAVOK 03/02 Q1019 NOSIG

TAF TAF EBBR
Valid from the 07 at 00:00 until the 08 at 06:00 UTC


062317Z 0700/0806 27005KT 9999 FEW015 SCT025
PROB30
TEMPO 0700/0710 BKN012
PROB30
TEMPO 0723/0806 SCT008 BKN012



MET'MAP, your aeronautical weather chart ! - Copyright ORBIFLY December 2007 - Disclaimer

ORBIFLY MET'MAP TEAM :

Programming & Development : Alexandra Zaïnal
Original concept : Baudouin d'Aumeries
Technical & hardware support : Manuel Goepfert
Assistance : Marc-Olivier Méhu




SOURCES & CREDITS :

   NOAA